sensor_id;sensor_type;location;lat;lon;timestamp;P1;durP1;ratioP1;P2;durP2;ratioP2
62463;SDS011;48512;48.552;9.380;2022-08-19T00:01:47;43.22;;;25.40;;
62463;SDS011;48512;48.552;9.380;2022-08-19T00:04:14;40.90;;;25.02;;
62463;SDS011;48512;48.552;9.380;2022-08-19T00:06:41;45.25;;;27.83;;
62463;SDS011;48512;48.552;9.380;2022-08-19T00:09:09;43.20;;;25.98;;
62463;SDS011;48512;48.552;9.380;2022-08-19T00:11:36;41.03;;;25.73;;
62463;SDS011;48512;48.552;9.380;2022-08-19T00:14:04;43.50;;;26.48;;
62463;SDS011;48512;48.552;9.380;2022-08-19T00:16:31;45.30;;;26.90;;
62463;SDS011;48512;48.552;9.380;2022-08-19T00:18:57;47.72;;;27.52;;
62463;SDS011;48512;48.552;9.380;2022-08-19T00:21:23;41.88;;;24.10;;
62463;SDS011;48512;48.552;9.380;2022-08-19T00:23:49;46.92;;;25.60;;
62463;SDS011;48512;48.552;9.380;2022-08-19T00:26:15;42.30;;;26.00;;
62463;SDS011;48512;48.552;9.380;2022-08-19T00:28:41;42.05;;;26.00;;
62463;SDS011;48512;48.552;9.380;2022-08-19T00:31:07;41.97;;;26.35;;
62463;SDS011;48512;48.552;9.380;2022-08-19T00:33:33;46.97;;;26.67;;
62463;SDS011;48512;48.552;9.380;2022-08-19T00:35:59;45.97;;;25.65;;
62463;SDS011;48512;48.552;9.380;2022-08-19T00:38:25;44.85;;;26.88;;
62463;SDS011;48512;48.552;9.380;2022-08-19T00:40:51;43.20;;;25.42;;
62463;SDS011;48512;48.552;9.380;2022-08-19T00:43:22;44.78;;;26.83;;
62463;SDS011;48512;48.552;9.380;2022-08-19T00:45:49;44.72;;;26.25;;
62463;SDS011;48512;48.552;9.380;2022-08-19T00:48:15;44.50;;;25.45;;
62463;SDS011;48512;48.552;9.380;2022-08-19T00:50:41;47.67;;;26.45;;
62463;SDS011;48512;48.552;9.380;2022-08-19T00:53:08;44.10;;;24.60;;
62463;SDS011;48512;48.552;9.380;2022-08-19T00:55:34;41.15;;;25.02;;
62463;SDS011;48512;48.552;9.380;2022-08-19T00:58:10;46.67;;;26.45;;
62463;SDS011;48512;48.552;9.380;2022-08-19T01:00:38;41.78;;;24.98;;
62463;SDS011;48512;48.552;9.380;2022-08-19T01:03:08;40.72;;;24.80;;
62463;SDS011;48512;48.552;9.380;2022-08-19T01:05:38;42.22;;;25.15;;
62463;SDS011;48512;48.552;9.380;2022-08-19T01:08:05;38.60;;;23.67;;
62463;SDS011;48512;48.552;9.380;2022-08-19T01:10:33;41.53;;;23.65;;
62463;SDS011;48512;48.552;9.380;2022-08-19T01:13:04;43.47;;;25.35;;
62463;SDS011;48512;48.552;9.380;2022-08-19T01:15:31;40.95;;;23.73;;
62463;SDS011;48512;48.552;9.380;2022-08-19T01:18:01;41.20;;;25.42;;
62463;SDS011;48512;48.552;9.380;2022-08-19T01:20:32;43.13;;;24.80;;
62463;SDS011;48512;48.552;9.380;2022-08-19T01:22:59;41.95;;;24.98;;
62463;SDS011;48512;48.552;9.380;2022-08-19T01:25:29;44.78;;;24.05;;
62463;SDS011;48512;48.552;9.380;2022-08-19T01:28:00;47.03;;;25.08;;
62463;SDS011;48512;48.552;9.380;2022-08-19T01:30:29;43.03;;;25.75;;
62463;SDS011;48512;48.552;9.380;2022-08-19T01:32:57;42.85;;;24.27;;
62463;SDS011;48512;48.552;9.380;2022-08-19T01:35:25;44.78;;;25.30;;
62463;SDS011;48512;48.552;9.380;2022-08-19T01:37:53;45.47;;;26.30;;
62463;SDS011;48512;48.552;9.380;2022-08-19T01:40:21;41.85;;;24.65;;
62463;SDS011;48512;48.552;9.380;2022-08-19T01:42:49;44.35;;;25.67;;
62463;SDS011;48512;48.552;9.380;2022-08-19T01:45:15;48.25;;;27.40;;
62463;SDS011;48512;48.552;9.380;2022-08-19T01:47:41;41.88;;;24.08;;
62463;SDS011;48512;48.552;9.380;2022-08-19T01:50:07;42.30;;;24.98;;
62463;SDS011;48512;48.552;9.380;2022-08-19T01:52:35;44.28;;;25.63;;
62463;SDS011;48512;48.552;9.380;2022-08-19T01:55:03;44.78;;;24.85;;
62463;SDS011;48512;48.552;9.380;2022-08-19T01:57:30;47.40;;;24.85;;
62463;SDS011;48512;48.552;9.380;2022-08-19T01:59:55;48.97;;;26.73;;
62463;SDS011;48512;48.552;9.380;2022-08-19T02:02:21;47.10;;;26.27;;
62463;SDS011;48512;48.552;9.380;2022-08-19T02:04:47;43.72;;;24.92;;
62463;SDS011;48512;48.552;9.380;2022-08-19T02:07:13;44.10;;;25.15;;
62463;SDS011;48512;48.552;9.380;2022-08-19T02:09:38;45.20;;;24.92;;
62463;SDS011;48512;48.552;9.380;2022-08-19T02:12:04;46.33;;;25.08;;
62463;SDS011;48512;48.552;9.380;2022-08-19T02:14:30;45.33;;;25.98;;
62463;SDS011;48512;48.552;9.380;2022-08-19T02:16:55;45.60;;;25.63;;
62463;SDS011;48512;48.552;9.380;2022-08-19T02:19:20;46.63;;;24.88;;
62463;SDS011;48512;48.552;9.380;2022-08-19T02:21:46;43.75;;;25.20;;
62463;SDS011;48512;48.552;9.380;2022-08-19T02:24:11;45.08;;;25.35;;
62463;SDS011;48512;48.552;9.380;2022-08-19T02:26:37;43.63;;;24.30;;
62463;SDS011;48512;48.552;9.380;2022-08-19T02:29:02;47.88;;;24.55;;
62463;SDS011;48512;48.552;9.380;2022-08-19T02:31:28;44.17;;;24.23;;
62463;SDS011;48512;48.552;9.380;2022-08-19T02:33:54;48.83;;;24.65;;
62463;SDS011;48512;48.552;9.380;2022-08-19T02:36:21;45.13;;;24.40;;
62463;SDS011;48512;48.552;9.380;2022-08-19T02:38:46;46.47;;;24.92;;
62463;SDS011;48512;48.552;9.380;2022-08-19T02:41:19;44.72;;;25.23;;
62463;SDS011;48512;48.552;9.380;2022-08-19T02:43:47;47.25;;;25.77;;
62463;SDS011;48512;48.552;9.380;2022-08-19T02:48:46;46.67;;;23.85;;
62463;SDS011;48512;48.552;9.380;2022-08-19T02:53:41;47.85;;;25.08;;
62463;SDS011;48512;48.552;9.380;2022-08-19T02:56:07;45.70;;;23.80;;
62463;SDS011;48512;48.552;9.380;2022-08-19T02:58:32;51.80;;;26.48;;
62463;SDS011;48512;48.552;9.380;2022-08-19T03:00:58;46.55;;;25.48;;
62463;SDS011;48512;48.552;9.380;2022-08-19T03:03:23;50.08;;;26.25;;
62463;SDS011;48512;48.552;9.380;2022-08-19T03:05:49;45.58;;;24.63;;
62463;SDS011;48512;48.552;9.380;2022-08-19T03:08:14;51.00;;;25.48;;
62463;SDS011;48512;48.552;9.380;2022-08-19T03:10:47;50.95;;;25.80;;
62463;SDS011;48512;48.552;9.380;2022-08-19T03:13:14;48.47;;;25.48;;
62463;SDS011;48512;48.552;9.380;2022-08-19T03:15:42;50.03;;;26.63;;
62463;SDS011;48512;48.552;9.380;2022-08-19T03:18:09;55.95;;;26.35;;
62463;SDS011;48512;48.552;9.380;2022-08-19T03:20:39;48.20;;;24.73;;
62463;SDS011;48512;48.552;9.380;2022-08-19T03:23:05;47.50;;;25.20;;
62463;SDS011;48512;48.552;9.380;2022-08-19T03:25:31;45.95;;;24.08;;
62463;SDS011;48512;48.552;9.380;2022-08-19T03:28:02;47.88;;;26.38;;
62463;SDS011;48512;48.552;9.380;2022-08-19T03:30:28;49.15;;;24.63;;
62463;SDS011;48512;48.552;9.380;2022-08-19T03:32:53;45.85;;;24.52;;
62463;SDS011;48512;48.552;9.380;2022-08-19T03:35:18;48.13;;;25.42;;
62463;SDS011;48512;48.552;9.380;2022-08-19T03:37:45;53.50;;;26.40;;
62463;SDS011;48512;48.552;9.380;2022-08-19T03:40:10;47.42;;;25.88;;
62463;SDS011;48512;48.552;9.380;2022-08-19T03:42:36;45.10;;;25.63;;
62463;SDS011;48512;48.552;9.380;2022-08-19T03:45:02;50.88;;;26.23;;
62463;SDS011;48512;48.552;9.380;2022-08-19T03:47:28;49.60;;;26.08;;
62463;SDS011;48512;48.552;9.380;2022-08-19T03:49:53;47.58;;;24.00;;
62463;SDS011;48512;48.552;9.380;2022-08-19T03:52:18;47.47;;;25.65;;
62463;SDS011;48512;48.552;9.380;2022-08-19T03:54:44;51.00;;;26.58;;
62463;SDS011;48512;48.552;9.380;2022-08-19T03:57:09;52.13;;;26.27;;
62463;SDS011;48512;48.552;9.380;2022-08-19T03:59:36;46.88;;;25.45;;
62463;SDS011;48512;48.552;9.380;2022-08-19T04:02:06;49.30;;;25.67;;
62463;SDS011;48512;48.552;9.380;2022-08-19T04:04:34;51.55;;;26.98;;
62463;SDS011;48512;48.552;9.380;2022-08-19T04:07:01;50.40;;;25.40;;
62463;SDS011;48512;48.552;9.380;2022-08-19T04:09:26;51.22;;;26.20;;
62463;SDS011;48512;48.552;9.380;2022-08-19T04:11:54;47.42;;;25.52;;
62463;SDS011;48512;48.552;9.380;2022-08-19T04:14:22;51.00;;;26.55;;
62463;SDS011;48512;48.552;9.380;2022-08-19T04:16:50;50.03;;;25.67;;
62463;SDS011;48512;48.552;9.380;2022-08-19T04:19:17;50.13;;;25.73;;
62463;SDS011;48512;48.552;9.380;2022-08-19T04:21:44;49.50;;;25.50;;
62463;SDS011;48512;48.552;9.380;2022-08-19T04:24:12;51.95;;;26.33;;
62463;SDS011;48512;48.552;9.380;2022-08-19T04:26:38;49.95;;;26.38;;
62463;SDS011;48512;48.552;9.380;2022-08-19T04:29:08;48.65;;;26.90;;
62463;SDS011;48512;48.552;9.380;2022-08-19T04:32:00;50.60;;;26.25;;
62463;SDS011;48512;48.552;9.380;2022-08-19T04:34:27;53.70;;;26.67;;
62463;SDS011;48512;48.552;9.380;2022-08-19T04:36:54;50.20;;;25.90;;
62463;SDS011;48512;48.552;9.380;2022-08-19T04:39:22;47.42;;;24.83;;
62463;SDS011;48512;48.552;9.380;2022-08-19T04:42:10;54.50;;;27.02;;
62463;SDS011;48512;48.552;9.380;2022-08-19T04:44:55;52.53;;;26.10;;
62463;SDS011;48512;48.552;9.380;2022-08-19T04:47:20;53.47;;;25.10;;
62463;SDS011;48512;48.552;9.380;2022-08-19T04:49:45;48.80;;;25.85;;
62463;SDS011;48512;48.552;9.380;2022-08-19T04:52:11;53.03;;;25.92;;
62463;SDS011;48512;48.552;9.380;2022-08-19T04:54:36;54.05;;;26.42;;
62463;SDS011;48512;48.552;9.380;2022-08-19T04:57:02;50.50;;;26.15;;
62463;SDS011;48512;48.552;9.380;2022-08-19T04:59:30;51.13;;;26.45;;
62463;SDS011;48512;48.552;9.380;2022-08-19T05:01:57;51.20;;;26.92;;
62463;SDS011;48512;48.552;9.380;2022-08-19T05:04:22;51.47;;;25.45;;
62463;SDS011;48512;48.552;9.380;2022-08-19T05:06:48;50.22;;;26.45;;
62463;SDS011;48512;48.552;9.380;2022-08-19T05:09:14;56.78;;;26.83;;
62463;SDS011;48512;48.552;9.380;2022-08-19T05:11:40;52.08;;;27.00;;
62463;SDS011;48512;48.552;9.380;2022-08-19T05:14:06;51.88;;;26.75;;
62463;SDS011;48512;48.552;9.380;2022-08-19T05:16:32;50.28;;;24.83;;
62463;SDS011;48512;48.552;9.380;2022-08-19T05:18:58;55.50;;;27.08;;
62463;SDS011;48512;48.552;9.380;2022-08-19T05:21:42;54.58;;;27.02;;
62463;SDS011;48512;48.552;9.380;2022-08-19T05:24:26;51.58;;;26.65;;
62463;SDS011;48512;48.552;9.380;2022-08-19T05:26:53;53.65;;;27.48;;
62463;SDS011;48512;48.552;9.380;2022-08-19T05:29:21;49.93;;;25.67;;
62463;SDS011;48512;48.552;9.380;2022-08-19T05:31:48;53.60;;;26.95;;
62463;SDS011;48512;48.552;9.380;2022-08-19T05:34:15;53.88;;;28.90;;
62463;SDS011;48512;48.552;9.380;2022-08-19T05:36:42;50.85;;;26.38;;
62463;SDS011;48512;48.552;9.380;2022-08-19T05:39:11;54.50;;;27.13;;
62463;SDS011;48512;48.552;9.380;2022-08-19T05:41:43;50.47;;;26.15;;
62463;SDS011;48512;48.552;9.380;2022-08-19T05:44:14;54.25;;;27.88;;
62463;SDS011;48512;48.552;9.380;2022-08-19T05:46:39;56.53;;;29.05;;
62463;SDS011;48512;48.552;9.380;2022-08-19T05:49:07;54.38;;;28.17;;
62463;SDS011;48512;48.552;9.380;2022-08-19T05:51:34;52.17;;;25.92;;
62463;SDS011;48512;48.552;9.380;2022-08-19T05:54:02;54.28;;;28.00;;
62463;SDS011;48512;48.552;9.380;2022-08-19T05:56:29;56.47;;;27.00;;
62463;SDS011;48512;48.552;9.380;2022-08-19T05:58:55;55.80;;;27.58;;
62463;SDS011;48512;48.552;9.380;2022-08-19T06:01:21;57.13;;;28.45;;
62463;SDS011;48512;48.552;9.380;2022-08-19T06:03:46;56.88;;;26.48;;
62463;SDS011;48512;48.552;9.380;2022-08-19T06:06:13;60.78;;;29.88;;
62463;SDS011;48512;48.552;9.380;2022-08-19T06:08:41;56.35;;;28.95;;
62463;SDS011;48512;48.552;9.380;2022-08-19T06:13:45;61.42;;;30.83;;
62463;SDS011;48512;48.552;9.380;2022-08-19T06:16:15;57.35;;;30.23;;
62463;SDS011;48512;48.552;9.380;2022-08-19T06:18:45;60.25;;;31.50;;
62463;SDS011;48512;48.552;9.380;2022-08-19T06:21:11;60.08;;;29.48;;
62463;SDS011;48512;48.552;9.380;2022-08-19T06:23:37;59.50;;;30.30;;
62463;SDS011;48512;48.552;9.380;2022-08-19T06:26:03;64.25;;;31.58;;
62463;SDS011;48512;48.552;9.380;2022-08-19T06:28:29;63.15;;;30.65;;
62463;SDS011;48512;48.552;9.380;2022-08-19T06:30:54;57.05;;;29.70;;
62463;SDS011;48512;48.552;9.380;2022-08-19T06:33:20;55.47;;;29.10;;
62463;SDS011;48512;48.552;9.380;2022-08-19T06:35:45;59.25;;;30.40;;
62463;SDS011;48512;48.552;9.380;2022-08-19T06:38:10;57.00;;;28.67;;
62463;SDS011;48512;48.552;9.380;2022-08-19T06:40:36;60.67;;;31.13;;
62463;SDS011;48512;48.552;9.380;2022-08-19T06:43:02;54.25;;;28.75;;
62463;SDS011;48512;48.552;9.380;2022-08-19T06:45:28;61.40;;;31.10;;
62463;SDS011;48512;48.552;9.380;2022-08-19T06:47:53;58.80;;;31.20;;
62463;SDS011;48512;48.552;9.380;2022-08-19T06:50:21;59.40;;;31.58;;
62463;SDS011;48512;48.552;9.380;2022-08-19T06:52:47;63.95;;;31.52;;
62463;SDS011;48512;48.552;9.380;2022-08-19T06:55:13;59.75;;;30.60;;
62463;SDS011;48512;48.552;9.380;2022-08-19T06:57:39;67.20;;;33.03;;
62463;SDS011;48512;48.552;9.380;2022-08-19T07:00:04;61.55;;;31.65;;
62463;SDS011;48512;48.552;9.380;2022-08-19T07:02:35;58.75;;;30.35;;
62463;SDS011;48512;48.552;9.380;2022-08-19T07:05:02;57.75;;;31.10;;
62463;SDS011;48512;48.552;9.380;2022-08-19T07:07:28;62.40;;;31.45;;
62463;SDS011;48512;48.552;9.380;2022-08-19T07:09:58;56.53;;;31.00;;
62463;SDS011;48512;48.552;9.380;2022-08-19T07:12:23;61.22;;;32.28;;
62463;SDS011;48512;48.552;9.380;2022-08-19T07:14:49;65.03;;;32.60;;
62463;SDS011;48512;48.552;9.380;2022-08-19T07:17:14;65.10;;;31.90;;
62463;SDS011;48512;48.552;9.380;2022-08-19T07:19:40;65.68;;;32.45;;
62463;SDS011;48512;48.552;9.380;2022-08-19T07:22:07;57.40;;;30.27;;
62463;SDS011;48512;48.552;9.380;2022-08-19T07:24:34;62.58;;;33.15;;
62463;SDS011;48512;48.552;9.380;2022-08-19T07:27:01;61.30;;;31.83;;
62463;SDS011;48512;48.552;9.380;2022-08-19T07:29:29;59.03;;;30.97;;
62463;SDS011;48512;48.552;9.380;2022-08-19T07:31:58;57.92;;;30.30;;
62463;SDS011;48512;48.552;9.380;2022-08-19T07:34:24;64.75;;;32.35;;
62463;SDS011;48512;48.552;9.380;2022-08-19T07:36:51;59.60;;;31.52;;
62463;SDS011;48512;48.552;9.380;2022-08-19T07:39:18;64.88;;;32.08;;
62463;SDS011;48512;48.552;9.380;2022-08-19T07:41:49;61.20;;;31.15;;
62463;SDS011;48512;48.552;9.380;2022-08-19T07:44:15;58.20;;;30.35;;
62463;SDS011;48512;48.552;9.380;2022-08-19T07:46:43;63.88;;;32.40;;
62463;SDS011;48512;48.552;9.380;2022-08-19T07:49:11;63.40;;;33.58;;
62463;SDS011;48512;48.552;9.380;2022-08-19T07:51:42;53.45;;;29.88;;
62463;SDS011;48512;48.552;9.380;2022-08-19T07:54:08;58.42;;;31.15;;
62463;SDS011;48512;48.552;9.380;2022-08-19T07:56:34;61.83;;;30.85;;
62463;SDS011;48512;48.552;9.380;2022-08-19T07:58:59;57.97;;;31.05;;
62463;SDS011;48512;48.552;9.380;2022-08-19T08:01:25;62.78;;;32.25;;
62463;SDS011;48512;48.552;9.380;2022-08-19T08:03:52;66.10;;;33.85;;
62463;SDS011;48512;48.552;9.380;2022-08-19T08:06:38;66.10;;;33.13;;
62463;SDS011;48512;48.552;9.380;2022-08-19T08:09:27;62.67;;;31.90;;
62463;SDS011;48512;48.552;9.380;2022-08-19T08:11:59;70.18;;;33.92;;
62463;SDS011;48512;48.552;9.380;2022-08-19T08:14:34;61.25;;;31.70;;
62463;SDS011;48512;48.552;9.380;2022-08-19T08:17:04;65.40;;;34.05;;
62463;SDS011;48512;48.552;9.380;2022-08-19T08:19:31;68.78;;;33.20;;
62463;SDS011;48512;48.552;9.380;2022-08-19T08:21:57;61.42;;;33.25;;
62463;SDS011;48512;48.552;9.380;2022-08-19T08:24:25;68.45;;;33.25;;
62463;SDS011;48512;48.552;9.380;2022-08-19T08:26:56;64.15;;;32.33;;
62463;SDS011;48512;48.552;9.380;2022-08-19T08:29:24;64.15;;;33.20;;
62463;SDS011;48512;48.552;9.380;2022-08-19T08:31:50;66.03;;;32.90;;
62463;SDS011;48512;48.552;9.380;2022-08-19T08:34:27;61.63;;;30.20;;
62463;SDS011;48512;48.552;9.380;2022-08-19T08:37:33;62.17;;;31.90;;
62463;SDS011;48512;48.552;9.380;2022-08-19T08:39:59;63.20;;;31.58;;
62463;SDS011;48512;48.552;9.380;2022-08-19T08:42:31;66.30;;;32.97;;
62463;SDS011;48512;48.552;9.380;2022-08-19T08:47:40;67.85;;;33.45;;
62463;SDS011;48512;48.552;9.380;2022-08-19T08:50:32;63.92;;;33.13;;
62463;SDS011;48512;48.552;9.380;2022-08-19T08:53:01;61.70;;;32.53;;
62463;SDS011;48512;48.552;9.380;2022-08-19T08:55:30;60.83;;;31.38;;
62463;SDS011;48512;48.552;9.380;2022-08-19T09:00:38;61.25;;;31.98;;
62463;SDS011;48512;48.552;9.380;2022-08-19T09:03:11;59.47;;;31.20;;
62463;SDS011;48512;48.552;9.380;2022-08-19T09:06:04;68.35;;;34.28;;
62463;SDS011;48512;48.552;9.380;2022-08-19T09:11:09;59.65;;;32.10;;
62463;SDS011;48512;48.552;9.380;2022-08-19T09:13:44;64.95;;;33.17;;
62463;SDS011;48512;48.552;9.380;2022-08-19T09:16:35;60.90;;;32.17;;
62463;SDS011;48512;48.552;9.380;2022-08-19T09:19:02;65.90;;;33.95;;
62463;SDS011;48512;48.552;9.380;2022-08-19T09:21:30;62.47;;;32.67;;
62463;SDS011;48512;48.552;9.380;2022-08-19T09:23:55;59.47;;;31.08;;
62463;SDS011;48512;48.552;9.380;2022-08-19T09:26:23;58.60;;;30.85;;
62463;SDS011;48512;48.552;9.380;2022-08-19T09:28:50;60.83;;;31.13;;
62463;SDS011;48512;48.552;9.380;2022-08-19T09:31:24;60.50;;;32.00;;
62463;SDS011;48512;48.552;9.380;2022-08-19T09:33:51;62.53;;;32.92;;
62463;SDS011;48512;48.552;9.380;2022-08-19T09:36:18;61.17;;;31.70;;
62463;SDS011;48512;48.552;9.380;2022-08-19T09:41:39;64.50;;;32.38;;
62463;SDS011;48512;48.552;9.380;2022-08-19T09:44:04;60.92;;;32.70;;
62463;SDS011;48512;48.552;9.380;2022-08-19T09:46:29;58.35;;;30.10;;
62463;SDS011;48512;48.552;9.380;2022-08-19T09:48:57;58.70;;;30.52;;
62463;SDS011;48512;48.552;9.380;2022-08-19T09:51:25;62.42;;;32.50;;
62463;SDS011;48512;48.552;9.380;2022-08-19T09:53:52;62.97;;;32.70;;
62463;SDS011;48512;48.552;9.380;2022-08-19T09:56:21;57.67;;;30.98;;
62463;SDS011;48512;48.552;9.380;2022-08-19T09:58:47;59.67;;;30.63;;
62463;SDS011;48512;48.552;9.380;2022-08-19T10:01:20;59.35;;;30.25;;
62463;SDS011;48512;48.552;9.380;2022-08-19T10:03:49;60.20;;;32.10;;
62463;SDS011;48512;48.552;9.380;2022-08-19T10:06:17;59.53;;;31.00;;
62463;SDS011;48512;48.552;9.380;2022-08-19T10:08:43;60.97;;;31.90;;
62463;SDS011;48512;48.552;9.380;2022-08-19T10:11:09;58.75;;;31.73;;
62463;SDS011;48512;48.552;9.380;2022-08-19T10:13:34;62.25;;;32.70;;
62463;SDS011;48512;48.552;9.380;2022-08-19T10:16:03;61.22;;;31.52;;
62463;SDS011;48512;48.552;9.380;2022-08-19T10:18:31;57.45;;;30.83;;
62463;SDS011;48512;48.552;9.380;2022-08-19T10:21:04;59.10;;;31.92;;
62463;SDS011;48512;48.552;9.380;2022-08-19T10:23:35;57.72;;;29.92;;
62463;SDS011;48512;48.552;9.380;2022-08-19T10:26:02;56.13;;;30.73;;
62463;SDS011;48512;48.552;9.380;2022-08-19T10:28:30;57.85;;;30.95;;
62463;SDS011;48512;48.552;9.380;2022-08-19T10:30:57;64.38;;;32.88;;
62463;SDS011;48512;48.552;9.380;2022-08-19T10:33:23;55.20;;;30.33;;
62463;SDS011;48512;48.552;9.380;2022-08-19T10:35:58;58.35;;;30.05;;
62463;SDS011;48512;48.552;9.380;2022-08-19T10:38:24;62.65;;;31.10;;
62463;SDS011;48512;48.552;9.380;2022-08-19T10:43:41;60.03;;;31.05;;
62463;SDS011;48512;48.552;9.380;2022-08-19T10:46:07;61.35;;;32.78;;
62463;SDS011;48512;48.552;9.380;2022-08-19T10:48:34;64.72;;;33.08;;
62463;SDS011;48512;48.552;9.380;2022-08-19T10:51:00;69.53;;;33.75;;
62463;SDS011;48512;48.552;9.380;2022-08-19T10:53:44;62.08;;;33.28;;
62463;SDS011;48512;48.552;9.380;2022-08-19T10:56:09;57.53;;;31.05;;
62463;SDS011;48512;48.552;9.380;2022-08-19T10:58:53;56.45;;;29.10;;
62463;SDS011;48512;48.552;9.380;2022-08-19T11:01:22;59.80;;;31.73;;
62463;SDS011;48512;48.552;9.380;2022-08-19T11:03:47;59.60;;;31.77;;
62463;SDS011;48512;48.552;9.380;2022-08-19T11:06:13;60.55;;;31.83;;
62463;SDS011;48512;48.552;9.380;2022-08-19T11:08:38;57.35;;;31.45;;
62463;SDS011;48512;48.552;9.380;2022-08-19T11:11:04;59.88;;;31.67;;
62463;SDS011;48512;48.552;9.380;2022-08-19T11:13:32;61.65;;;32.50;;
62463;SDS011;48512;48.552;9.380;2022-08-19T11:16:09;65.35;;;32.72;;
62463;SDS011;48512;48.552;9.380;2022-08-19T11:18:39;61.00;;;32.28;;
62463;SDS011;48512;48.552;9.380;2022-08-19T11:23:54;65.90;;;32.13;;
62463;SDS011;48512;48.552;9.380;2022-08-19T11:26:22;63.85;;;31.77;;
62463;SDS011;48512;48.552;9.380;2022-08-19T11:28:48;60.97;;;32.13;;
62463;SDS011;48512;48.552;9.380;2022-08-19T11:31:17;62.47;;;31.88;;
62463;SDS011;48512;48.552;9.380;2022-08-19T11:33:44;63.50;;;32.00;;
62463;SDS011;48512;48.552;9.380;2022-08-19T11:36:11;60.40;;;31.02;;
62463;SDS011;48512;48.552;9.380;2022-08-19T11:38:37;61.22;;;32.92;;
62463;SDS011;48512;48.552;9.380;2022-08-19T11:41:04;60.40;;;32.08;;
62463;SDS011;48512;48.552;9.380;2022-08-19T11:43:32;56.92;;;31.25;;
62463;SDS011;48512;48.552;9.380;2022-08-19T11:45:58;57.38;;;31.70;;
62463;SDS011;48512;48.552;9.380;2022-08-19T11:48:24;59.13;;;31.73;;
62463;SDS011;48512;48.552;9.380;2022-08-19T11:50:51;60.17;;;32.05;;
62463;SDS011;48512;48.552;9.380;2022-08-19T11:53:21;59.33;;;31.33;;
62463;SDS011;48512;48.552;9.380;2022-08-19T11:55:47;64.38;;;33.17;;
62463;SDS011;48512;48.552;9.380;2022-08-19T11:58:13;61.63;;;32.85;;
62463;SDS011;48512;48.552;9.380;2022-08-19T12:00:41;59.08;;;30.77;;
62463;SDS011;48512;48.552;9.380;2022-08-19T12:03:07;55.85;;;31.60;;
62463;SDS011;48512;48.552;9.380;2022-08-19T12:05:32;52.80;;;29.63;;
62463;SDS011;48512;48.552;9.380;2022-08-19T12:07:59;53.80;;;29.35;;
62463;SDS011;48512;48.552;9.380;2022-08-19T12:10:25;54.67;;;30.05;;
62463;SDS011;48512;48.552;9.380;2022-08-19T12:12:50;50.90;;;28.70;;
62463;SDS011;48512;48.552;9.380;2022-08-19T12:15:16;49.58;;;27.80;;
62463;SDS011;48512;48.552;9.380;2022-08-19T12:17:41;52.30;;;28.92;;
62463;SDS011;48512;48.552;9.380;2022-08-19T12:20:08;55.60;;;29.25;;
62463;SDS011;48512;48.552;9.380;2022-08-19T12:22:35;47.92;;;27.27;;
62463;SDS011;48512;48.552;9.380;2022-08-19T12:25:02;44.83;;;25.65;;
62463;SDS011;48512;48.552;9.380;2022-08-19T12:27:28;47.92;;;26.42;;
62463;SDS011;48512;48.552;9.380;2022-08-19T12:29:54;51.10;;;28.00;;
62463;SDS011;48512;48.552;9.380;2022-08-19T12:32:19;48.55;;;26.40;;
62463;SDS011;48512;48.552;9.380;2022-08-19T12:34:46;48.28;;;26.23;;
62463;SDS011;48512;48.552;9.380;2022-08-19T12:37:12;49.67;;;27.23;;
62463;SDS011;48512;48.552;9.380;2022-08-19T12:39:39;46.22;;;26.38;;
62463;SDS011;48512;48.552;9.380;2022-08-19T12:42:06;48.88;;;27.42;;
62463;SDS011;48512;48.552;9.380;2022-08-19T12:44:34;46.03;;;26.77;;
62463;SDS011;48512;48.552;9.380;2022-08-19T12:47:00;50.13;;;27.52;;
62463;SDS011;48512;48.552;9.380;2022-08-19T12:49:28;46.60;;;26.30;;
62463;SDS011;48512;48.552;9.380;2022-08-19T12:51:54;47.03;;;26.38;;
62463;SDS011;48512;48.552;9.380;2022-08-19T12:54:20;50.92;;;28.65;;
62463;SDS011;48512;48.552;9.380;2022-08-19T12:56:45;46.28;;;26.30;;
62463;SDS011;48512;48.552;9.380;2022-08-19T12:59:10;49.40;;;29.02;;
62463;SDS011;48512;48.552;9.380;2022-08-19T13:01:36;49.60;;;27.52;;
62463;SDS011;48512;48.552;9.380;2022-08-19T13:04:03;51.03;;;28.02;;
62463;SDS011;48512;48.552;9.380;2022-08-19T13:06:28;53.13;;;31.77;;
62463;SDS011;48512;48.552;9.380;2022-08-19T13:08:54;53.95;;;29.63;;
62463;SDS011;48512;48.552;9.380;2022-08-19T13:11:20;52.88;;;28.63;;
62463;SDS011;48512;48.552;9.380;2022-08-19T13:13:49;47.90;;;26.77;;
62463;SDS011;48512;48.552;9.380;2022-08-19T13:16:16;48.90;;;26.55;;
62463;SDS011;48512;48.552;9.380;2022-08-19T13:18:43;51.15;;;27.80;;
62463;SDS011;48512;48.552;9.380;2022-08-19T13:21:12;53.80;;;28.08;;
62463;SDS011;48512;48.552;9.380;2022-08-19T13:23:38;46.88;;;25.80;;
62463;SDS011;48512;48.552;9.380;2022-08-19T13:26:05;48.47;;;26.95;;
62463;SDS011;48512;48.552;9.380;2022-08-19T13:28:31;54.60;;;29.92;;
62463;SDS011;48512;48.552;9.380;2022-08-19T13:31:17;53.20;;;28.33;;
62463;SDS011;48512;48.552;9.380;2022-08-19T13:34:03;52.72;;;28.40;;
62463;SDS011;48512;48.552;9.380;2022-08-19T13:36:29;51.72;;;28.30;;
62463;SDS011;48512;48.552;9.380;2022-08-19T13:38:54;52.22;;;28.60;;
62463;SDS011;48512;48.552;9.380;2022-08-19T13:41:21;49.00;;;27.33;;
62463;SDS011;48512;48.552;9.380;2022-08-19T13:43:47;50.58;;;27.67;;
62463;SDS011;48512;48.552;9.380;2022-08-19T13:46:13;48.90;;;27.65;;
62463;SDS011;48512;48.552;9.380;2022-08-19T13:48:40;47.13;;;27.60;;
62463;SDS011;48512;48.552;9.380;2022-08-19T13:51:06;49.80;;;29.00;;
62463;SDS011;48512;48.552;9.380;2022-08-19T13:53:34;47.80;;;27.25;;
62463;SDS011;48512;48.552;9.380;2022-08-19T13:56:08;46.83;;;26.45;;
62463;SDS011;48512;48.552;9.380;2022-08-19T13:58:41;47.00;;;27.23;;
62463;SDS011;48512;48.552;9.380;2022-08-19T14:01:06;46.40;;;26.02;;
62463;SDS011;48512;48.552;9.380;2022-08-19T14:03:33;49.97;;;27.63;;
62463;SDS011;48512;48.552;9.380;2022-08-19T14:05:59;51.15;;;27.55;;
62463;SDS011;48512;48.552;9.380;2022-08-19T14:08:25;52.33;;;29.10;;
62463;SDS011;48512;48.552;9.380;2022-08-19T14:10:53;43.80;;;25.80;;
62463;SDS011;48512;48.552;9.380;2022-08-19T14:13:19;49.25;;;27.55;;
62463;SDS011;48512;48.552;9.380;2022-08-19T14:15:46;47.38;;;27.00;;
62463;SDS011;48512;48.552;9.380;2022-08-19T14:18:12;50.97;;;26.88;;
62463;SDS011;48512;48.552;9.380;2022-08-19T14:20:39;51.40;;;26.27;;
62463;SDS011;48512;48.552;9.380;2022-08-19T14:23:14;48.75;;;27.00;;
62463;SDS011;48512;48.552;9.380;2022-08-19T14:25:40;44.47;;;25.58;;
62463;SDS011;48512;48.552;9.380;2022-08-19T14:28:06;45.92;;;25.88;;
62463;SDS011;48512;48.552;9.380;2022-08-19T14:30:33;42.42;;;25.40;;
62463;SDS011;48512;48.552;9.380;2022-08-19T14:33:00;44.95;;;26.55;;
62463;SDS011;48512;48.552;9.380;2022-08-19T14:35:27;42.42;;;24.95;;
62463;SDS011;48512;48.552;9.380;2022-08-19T14:37:54;42.03;;;25.08;;
62463;SDS011;48512;48.552;9.380;2022-08-19T14:40:21;46.30;;;27.23;;
62463;SDS011;48512;48.552;9.380;2022-08-19T14:42:56;49.05;;;27.50;;
62463;SDS011;48512;48.552;9.380;2022-08-19T14:45:25;45.28;;;26.10;;
62463;SDS011;48512;48.552;9.380;2022-08-19T14:47:52;38.92;;;22.80;;
62463;SDS011;48512;48.552;9.380;2022-08-19T14:50:18;45.08;;;25.80;;